Time;durP1;ratioP1;P1;durP2;ratioP2;P2;SDS_P1;SDS_P2;PMS_P1;PMS_P2;Temp;Humidity;BMP_temperature;BMP_pressure;BME280_temperature;BME280_humidity;BME280_pressure;Samples;Min_cycle;Max_cycle;Signal;HPM_P1;HPM_P2
2023/11/14 00:00:19;;;;;;;25.27;4.72;;;11.70;99.90;;;;;;4987190;28;20097;-63
2023/11/14 00:02:45;;;;;;;31.52;4.25;;;11.70;99.90;;;;;;4988238;28;20371;-63
2023/11/14 00:05:12;;;;;;;35.90;5.55;;;11.70;99.90;;;;;;4970616;28;20144;-63
2023/11/14 00:07:56;;;;;;;29.27;5.05;;;11.80;99.90;;;;;;4988405;28;20596;-62
2023/11/14 00:10:22;;;;;;;31.67;4.65;;;11.80;99.90;;;;;;4984429;28;20042;-62
2023/11/14 00:12:47;;;;;;;37.78;5.93;;;11.80;99.90;;;;;;4989709;28;20073;-63
2023/11/14 00:15:13;;;;;;;35.80;5.72;;;11.80;99.90;;;;;;4988334;28;20254;-63
2023/11/14 00:17:41;;;;;;;34.45;5.80;;;11.70;99.90;;;;;;4994509;28;20379;-62
2023/11/14 00:20:07;;;;;;;34.17;5.38;;;11.80;99.90;;;;;;4988809;28;20395;-63
2023/11/14 00:22:33;;;;;;;36.42;5.50;;;11.80;99.90;;;;;;4965809;28;20057;-63
2023/11/14 00:24:59;;;;;;;31.05;4.60;;;11.90;99.90;;;;;;4987986;28;20050;-63
2023/11/14 00:27:25;;;;;;;28.65;5.68;;;11.90;99.90;;;;;;4992548;28;20042;-63
2023/11/14 00:29:50;;;;;;;32.90;5.97;;;11.90;99.90;;;;;;4986976;28;20034;-62
2023/11/14 00:32:16;;;;;;;29.48;5.03;;;11.90;99.90;;;;;;4974154;28;20042;-63
2023/11/14 00:34:41;;;;;;;34.45;5.57;;;11.90;99.90;;;;;;4988242;28;20038;-63
2023/11/14 00:37:07;;;;;;;34.28;4.85;;;11.90;99.90;;;;;;4982145;28;20097;-63
2023/11/14 00:39:33;;;;;;;27.98;5.38;;;11.90;99.90;;;;;;4987286;28;20121;-63
2023/11/14 00:42:17;;;;;;;32.42;5.65;;;11.90;99.90;;;;;;4987926;28;20136;-62
2023/11/14 00:44:42;;;;;;;26.95;4.60;;;11.90;99.90;;;;;;4979807;28;20070;-60
2023/11/14 00:47:12;;;;;;;24.88;4.60;;;11.90;99.90;;;;;;4988601;28;20070;-63
2023/11/14 00:49:37;;;;;;;29.85;5.05;;;11.90;99.90;;;;;;4988218;28;20049;-62
2023/11/14 00:52:03;;;;;;;32.53;4.80;;;12.00;99.90;;;;;;4970530;28;20485;-61
2023/11/14 00:54:31;;;;;;;33.65;5.47;;;12.00;99.90;;;;;;4987834;28;20076;-60
2023/11/14 00:56:57;;;;;;;24.85;5.40;;;11.90;99.90;;;;;;4970133;28;20075;-63
2023/11/14 00:59:23;;;;;;;33.40;5.03;;;12.00;99.90;;;;;;4988436;28;20069;-62
2023/11/14 01:01:49;;;;;;;33.00;5.95;;;12.00;99.90;;;;;;4969850;28;20435;-61
2023/11/14 01:04:18;;;;;;;34.83;5.43;;;12.10;99.90;;;;;;4993445;28;20362;-63
2023/11/14 01:06:44;;;;;;;23.77;4.63;;;12.00;99.90;;;;;;4962707;28;20405;-63
2023/11/14 01:09:10;;;;;;;32.28;5.75;;;12.00;99.90;;;;;;4970556;28;20065;-62
2023/11/14 01:11:36;;;;;;;31.60;5.05;;;11.90;99.90;;;;;;4977462;28;20493;-61
2023/11/14 01:14:01;;;;;;;25.25;5.30;;;12.00;99.90;;;;;;4987734;28;20138;-62
2023/11/14 01:16:27;;;;;;;33.58;5.63;;;11.90;99.90;;;;;;4981757;28;20471;-62
2023/11/14 01:18:54;;;;;;;38.72;6.47;;;11.90;99.90;;;;;;4984411;28;20054;-60
2023/11/14 01:21:19;;;;;;;27.67;4.97;;;11.80;99.90;;;;;;4975153;28;20044;-63
2023/11/14 01:23:45;;;;;;;29.88;5.38;;;11.80;99.90;;;;;;4987413;28;20382;-63
2023/11/14 01:26:12;;;;;;;32.63;5.35;;;11.90;99.90;;;;;;4987013;28;20042;-63
2023/11/14 01:28:38;;;;;;;35.20;5.72;;;11.80;99.90;;;;;;4994232;28;20054;-62
2023/11/14 01:31:04;;;;;;;35.55;5.32;;;11.80;99.90;;;;;;4969522;28;20096;-62
2023/11/14 01:33:29;;;;;;;33.80;5.20;;;11.80;99.90;;;;;;4983349;28;20042;-63
2023/11/14 01:35:55;;;;;;;28.83;5.05;;;11.80;99.90;;;;;;4991057;28;20045;-63
2023/11/14 01:38:20;;;;;;;30.63;5.63;;;11.80;99.90;;;;;;4986806;28;20049;-61
2023/11/14 01:40:50;;;;;;;31.63;5.13;;;11.80;99.90;;;;;;4987224;28;20041;-63
2023/11/14 01:43:16;;;;;;;26.60;4.95;;;11.70;99.90;;;;;;4992785;28;20097;-63
2023/11/14 01:45:41;;;;;;;37.60;6.05;;;11.80;99.90;;;;;;4969717;28;20046;-62
2023/11/14 01:48:07;;;;;;;30.98;4.78;;;11.80;99.90;;;;;;4986881;28;20053;-63
2023/11/14 01:50:33;;;;;;;31.55;4.60;;;11.90;99.90;;;;;;4987329;28;20042;-63
2023/11/14 01:52:59;;;;;;;29.65;5.05;;;11.90;99.90;;;;;;4994479;28;20058;-63
2023/11/14 01:55:27;;;;;;;27.33;4.65;;;11.90;99.90;;;;;;4990044;28;20089;-63
2023/11/14 01:57:54;;;;;;;33.15;5.05;;;11.60;99.90;;;;;;4989513;28;20564;-61
2023/11/14 02:00:20;;;;;;;32.17;5.03;;;12.00;99.90;;;;;;4973669;28;20038;-63
2023/11/14 02:02:47;;;;;;;32.17;5.13;;;12.00;99.90;;;;;;4993498;28;20038;-63
2023/11/14 02:05:15;;;;;;;21.48;4.18;;;12.10;99.90;;;;;;4972989;28;20407;-62
2023/11/14 02:07:41;;;;;;;24.17;4.85;;;12.10;99.90;;;;;;4990673;28;20042;-63
2023/11/14 02:10:07;;;;;;;27.40;5.15;;;12.10;99.90;;;;;;4990750;28;20066;-61
2023/11/14 02:12:33;;;;;;;23.55;5.25;;;12.10;99.90;;;;;;4990781;28;20882;-63
2023/11/14 02:14:59;;;;;;;26.13;5.20;;;12.10;99.90;;;;;;4990193;28;20073;-60
2023/11/14 02:17:25;;;;;;;27.75;5.47;;;12.10;99.90;;;;;;4990448;28;20070;-61
2023/11/14 02:19:51;;;;;;;30.10;5.10;;;12.10;99.90;;;;;;4990883;28;20072;-63
2023/11/14 02:22:16;;;;;;;27.63;5.55;;;12.10;99.90;;;;;;4971590;28;20096;-62
2023/11/14 02:24:51;;;;;;;29.25;5.25;;;12.10;99.90;;;;;;4990770;28;20034;-63
2023/11/14 02:27:18;;;;;;;26.67;4.53;;;12.10;99.90;;;;;;4990285;28;20038;-64
2023/11/14 02:29:45;;;;;;;29.70;5.18;;;12.10;99.90;;;;;;4991475;28;20401;-63
2023/11/14 02:32:10;;;;;;;33.53;5.28;;;12.10;99.90;;;;;;4990274;28;20521;-63
2023/11/14 02:34:36;;;;;;;27.83;5.57;;;12.10;99.90;;;;;;4972368;28;20046;-62
2023/11/14 02:37:01;;;;;;;37.78;6.68;;;12.00;99.90;;;;;;4989061;28;20097;-61
2023/11/14 02:39:28;;;;;;;28.45;5.78;;;12.00;99.90;;;;;;4971825;28;20042;-63
2023/11/14 02:41:54;;;;;;;29.67;5.40;;;12.00;99.90;;;;;;4987184;28;20552;-63
2023/11/14 02:44:20;;;;;;;29.00;5.43;;;12.00;99.90;;;;;;4990213;28;20042;-61
2023/11/14 02:46:45;;;;;;;31.55;5.35;;;12.00;99.90;;;;;;4989860;28;20516;-63
2023/11/14 02:49:40;;;;;;;34.67;6.07;;;11.90;99.90;;;;;;4990195;28;20046;-63
2023/11/14 02:52:06;;;;;;;31.88;5.35;;;11.90;99.90;;;;;;4958884;28;20057;-62
2023/11/14 02:54:32;;;;;;;34.33;4.93;;;12.00;99.90;;;;;;4990090;28;20026;-61
2023/11/14 02:56:57;;;;;;;33.17;6.05;;;12.00;99.90;;;;;;4989738;28;20031;-63
2023/11/14 02:59:23;;;;;;;31.30;5.28;;;11.90;99.90;;;;;;4989959;28;20034;-63
2023/11/14 03:01:49;;;;;;;21.65;5.10;;;11.90;99.90;;;;;;4987377;28;20563;-63
2023/11/14 03:04:15;;;;;;;28.55;4.93;;;11.90;99.90;;;;;;4988154;28;20041;-61
2023/11/14 03:06:40;;;;;;;36.22;5.93;;;11.90;99.90;;;;;;4989356;28;20046;-61
2023/11/14 03:09:06;;;;;;;33.58;5.47;;;11.90;99.90;;;;;;4991169;28;20443;-63
2023/11/14 03:11:31;;;;;;;28.70;5.80;;;11.90;99.90;;;;;;4989778;28;20038;-63
2023/11/14 03:13:57;;;;;;;35.00;6.43;;;11.90;99.90;;;;;;4989598;28;20039;-62
2023/11/14 03:16:23;;;;;;;37.20;5.70;;;11.80;99.90;;;;;;4988830;28;20034;-62
2023/11/14 03:18:48;;;;;;;30.10;5.53;;;11.80;99.90;;;;;;4955634;28;20097;-63
2023/11/14 03:21:17;;;;;;;29.85;5.82;;;11.80;99.90;;;;;;4971447;28;20038;-64
2023/11/14 03:23:43;;;;;;;25.45;5.40;;;11.70;99.90;;;;;;4988247;28;20066;-63
2023/11/14 03:26:09;;;;;;;28.50;4.97;;;11.70;99.90;;;;;;4987468;28;20042;-61
2023/11/14 03:28:35;;;;;;;33.97;6.10;;;11.60;99.90;;;;;;4971553;28;20447;-62
2023/11/14 03:31:00;;;;;;;37.97;6.25;;;11.60;99.90;;;;;;4989998;28;20061;-63
2023/11/14 03:33:26;;;;;;;31.42;5.65;;;11.60;99.90;;;;;;4989136;28;20041;-63
2023/11/14 03:35:51;;;;;;;32.38;5.80;;;11.60;99.90;;;;;;4986954;28;20513;-63
2023/11/14 03:38:17;;;;;;;39.95;5.40;;;11.60;99.90;;;;;;4988211;28;20053;-62
2023/11/14 03:40:43;;;;;;;29.95;5.50;;;11.60;99.90;;;;;;4970900;28;20038;-63
2023/11/14 03:43:09;;;;;;;30.48;5.30;;;11.60;99.90;;;;;;4985578;28;20458;-63
2023/11/14 03:45:34;;;;;;;30.13;5.45;;;11.60;99.90;;;;;;4993137;28;20034;-63
2023/11/14 03:48:00;;;;;;;38.42;7.00;;;11.60;99.90;;;;;;4987842;28;20054;-63
2023/11/14 03:50:26;;;;;;;28.90;5.07;;;11.60;99.90;;;;;;4991078;28;20512;-63
2023/11/14 03:52:51;;;;;;;43.97;6.57;;;11.50;99.90;;;;;;4954153;28;20176;-61
2023/11/14 03:55:18;;;;;;;38.30;6.63;;;11.50;99.90;;;;;;4967883;28;20038;-64
2023/11/14 03:57:44;;;;;;;34.25;5.47;;;11.50;99.90;;;;;;4965424;28;20397;-63
2023/11/14 04:00:10;;;;;;;40.70;6.30;;;11.40;99.90;;;;;;4972802;28;20045;-61
2023/11/14 04:02:39;;;;;;;34.13;5.47;;;11.50;99.90;;;;;;4988162;28;20049;-63
2023/11/14 04:05:05;;;;;;;40.10;6.95;;;11.50;99.90;;;;;;4987590;28;20110;-63
2023/11/14 04:07:31;;;;;;;30.63;5.50;;;11.50;99.90;;;;;;4987900;28;20873;-63
2023/11/14 04:09:57;;;;;;;38.67;6.60;;;11.50;99.90;;;;;;4985641;28;20046;-62
2023/11/14 04:12:23;;;;;;;32.50;6.18;;;11.50;99.90;;;;;;4967893;28;20038;-62
2023/11/14 04:14:49;;;;;;;41.85;5.75;;;11.60;99.90;;;;;;4987082;28;20137;-63
2023/11/14 04:17:15;;;;;;;39.25;6.05;;;11.60;99.90;;;;;;4986198;28;20054;-63
2023/11/14 04:19:40;;;;;;;37.05;5.75;;;11.60;99.90;;;;;;4988478;28;20045;-61
2023/11/14 04:22:06;;;;;;;38.38;6.20;;;11.50;99.90;;;;;;4995210;28;20484;-63
2023/11/14 04:24:32;;;;;;;33.88;5.75;;;11.60;99.90;;;;;;4987998;28;20121;-62
2023/11/14 04:26:59;;;;;;;38.40;5.88;;;11.60;99.90;;;;;;4988051;28;20117;-63
2023/11/14 04:29:25;;;;;;;35.90;5.63;;;11.60;99.90;;;;;;4987711;28;20121;-61
2023/11/14 04:31:51;;;;;;;42.30;6.22;;;11.60;99.90;;;;;;4987911;28;20190;-62
2023/11/14 04:34:17;;;;;;;34.75;5.95;;;11.50;99.90;;;;;;4969982;28;20125;-63
2023/11/14 04:36:42;;;;;;;40.00;6.40;;;11.50;99.90;;;;;;4987427;28;20121;-63
2023/11/14 04:39:08;;;;;;;28.85;5.50;;;11.60;99.90;;;;;;4988112;28;20120;-63
2023/11/14 04:41:34;;;;;;;36.67;6.45;;;11.60;99.90;;;;;;4970218;28;20042;-62
2023/11/14 04:44:00;;;;;;;35.03;5.32;;;11.60;99.90;;;;;;4970839;28;20528;-63
2023/11/14 04:46:26;;;;;;;35.90;6.07;;;11.20;99.90;;;;;;4994448;28;20528;-62
2023/11/14 04:48:51;;;;;;;37.85;6.13;;;11.50;99.90;;;;;;4983943;28;20034;-62
2023/11/14 04:51:17;;;;;;;36.85;5.80;;;11.50;99.90;;;;;;4987512;28;20034;-63
2023/11/14 04:53:43;;;;;;;38.60;5.55;;;11.40;99.90;;;;;;4987842;28;20299;-63
2023/11/14 04:56:12;;;;;;;28.40;4.63;;;11.40;99.90;;;;;;4964155;28;20267;-63
2023/11/14 04:58:38;;;;;;;37.30;5.68;;;11.40;99.90;;;;;;4985277;28;20095;-63
2023/11/14 05:01:04;;;;;;;39.92;6.78;;;11.40;99.90;;;;;;4986267;28;20121;-63
2023/11/14 05:03:30;;;;;;;38.05;5.32;;;11.40;99.90;;;;;;4980767;28;20093;-63
2023/11/14 05:05:55;;;;;;;41.45;6.72;;;11.40;99.90;;;;;;4987239;28;20049;-64
2023/11/14 05:08:21;;;;;;;28.85;5.60;;;11.40;99.90;;;;;;4970556;28;20303;-63
2023/11/14 05:10:46;;;;;;;34.80;5.63;;;11.40;99.90;;;;;;4970075;28;20504;-63
2023/11/14 05:13:12;;;;;;;39.17;5.88;;;11.40;99.90;;;;;;4988805;28;20042;-63
2023/11/14 05:15:38;;;;;;;38.58;5.60;;;11.40;99.90;;;;;;4992746;28;20031;-62
2023/11/14 05:18:04;;;;;;;35.63;5.22;;;11.30;99.90;;;;;;4985934;28;20043;-63
2023/11/14 05:20:29;;;;;;;32.95;5.70;;;11.40;99.90;;;;;;4980282;28;20038;-63
2023/11/14 05:22:55;;;;;;;28.55;4.72;;;11.40;99.90;;;;;;4987279;28;20045;-63
2023/11/14 05:25:21;;;;;;;28.45;5.20;;;11.40;99.90;;;;;;4985549;28;20516;-62
2023/11/14 05:27:46;;;;;;;34.83;5.50;;;11.40;99.90;;;;;;4992680;28;20046;-61
2023/11/14 05:30:12;;;;;;;34.78;5.93;;;11.40;99.90;;;;;;4992855;28;20050;-63
2023/11/14 05:32:38;;;;;;;39.75;6.43;;;11.40;99.90;;;;;;4996790;28;20042;-63
2023/11/14 05:35:05;;;;;;;37.95;6.13;;;11.40;99.90;;;;;;4972946;28;20109;-63
2023/11/14 05:37:31;;;;;;;34.72;5.55;;;11.40;99.90;;;;;;4990762;28;20114;-63
2023/11/14 05:39:56;;;;;;;34.63;5.60;;;11.40;99.90;;;;;;4991281;28;20050;-63
2023/11/14 05:42:22;;;;;;;37.40;5.40;;;11.40;99.90;;;;;;4982238;28;20659;-63
2023/11/14 05:44:48;;;;;;;31.15;6.45;;;11.40;99.90;;;;;;4979047;28;20060;-63
2023/11/14 05:47:15;;;;;;;37.60;5.18;;;11.50;99.90;;;;;;4991793;28;20043;-63
2023/11/14 05:49:41;;;;;;;36.28;6.10;;;11.50;99.90;;;;;;4990543;28;20540;-63
2023/11/14 05:52:07;;;;;;;36.42;5.53;;;11.50;99.90;;;;;;4990439;28;20290;-63
2023/11/14 05:54:32;;;;;;;44.17;7.05;;;11.50;99.90;;;;;;4990130;28;20042;-63
2023/11/14 05:56:58;;;;;;;36.58;5.90;;;11.40;99.90;;;;;;4964743;28;20038;-63
2023/11/14 05:59:25;;;;;;;37.92;5.88;;;11.40;99.90;;;;;;4989786;28;20049;-63
2023/11/14 06:01:51;;;;;;;37.92;5.97;;;11.40;99.90;;;;;;4952607;28;20039;-63
2023/11/14 06:04:17;;;;;;;31.55;5.00;;;11.50;99.90;;;;;;4990271;28;20537;-63
2023/11/14 06:06:42;;;;;;;31.13;4.88;;;11.50;99.90;;;;;;4993817;28;20118;-63
2023/11/14 06:09:09;;;;;;;34.45;5.95;;;11.40;99.90;;;;;;4989654;28;20406;-62
2023/11/14 06:11:35;;;;;;;33.75;5.78;;;11.40;99.90;;;;;;4977517;28;20034;-63
2023/11/14 06:14:01;;;;;;;44.30;6.75;;;11.40;99.90;;;;;;4975213;28;20041;-63
2023/11/14 06:16:27;;;;;;;27.75;5.30;;;11.40;99.90;;;;;;4992306;28;20073;-63
2023/11/14 06:18:52;;;;;;;26.73;4.82;;;11.40;99.90;;;;;;4993742;28;20092;-63
2023/11/14 06:21:18;;;;;;;32.22;5.65;;;11.40;99.90;;;;;;4989821;28;20042;-63
2023/11/14 06:23:43;;;;;;;31.90;5.22;;;11.40;99.90;;;;;;4990399;28;20049;-62
2023/11/14 06:26:09;;;;;;;37.17;5.30;;;11.40;99.90;;;;;;4990272;28;20282;-62
2023/11/14 06:28:35;;;;;;;36.55;6.00;;;11.40;99.90;;;;;;4992809;28;20130;-63
2023/11/14 06:31:00;;;;;;;25.55;4.80;;;11.40;99.90;;;;;;4997498;28;20037;-62
2023/11/14 06:33:26;;;;;;;36.47;5.53;;;11.30;99.90;;;;;;4991544;28;20042;-61
2023/11/14 06:35:53;;;;;;;32.45;5.15;;;11.30;99.90;;;;;;4989285;28;20049;-62
2023/11/14 06:38:18;;;;;;;45.03;6.00;;;11.30;99.90;;;;;;4988765;28;20043;-63
2023/11/14 06:40:47;;;;;;;34.47;6.00;;;11.30;99.90;;;;;;4988035;28;20493;-63
2023/11/14 06:43:12;;;;;;;34.38;5.90;;;11.30;99.90;;;;;;4988245;28;20413;-61
2023/11/14 06:45:38;;;;;;;33.35;5.65;;;11.30;99.90;;;;;;4981230;28;20057;-63
2023/11/14 06:48:04;;;;;;;38.17;6.68;;;11.30;99.90;;;;;;4986733;28;20037;-63
2023/11/14 06:50:29;;;;;;;39.42;6.43;;;11.30;99.90;;;;;;4971238;28;20038;-63
2023/11/14 06:52:55;;;;;;;37.67;6.50;;;11.40;99.90;;;;;;4987994;28;20042;-62
2023/11/14 06:55:20;;;;;;;33.83;5.85;;;11.40;99.90;;;;;;4982292;28;20088;-63
2023/11/14 06:57:46;;;;;;;42.28;6.05;;;11.40;99.90;;;;;;4989198;28;20120;-63
2023/11/14 07:00:14;;;;;;;33.78;5.97;;;11.40;99.90;;;;;;4985175;28;20043;-62
2023/11/14 07:02:42;;;;;;;37.58;5.68;;;11.50;99.90;;;;;;4988113;28;20109;-63
2023/11/14 07:05:09;;;;;;;33.42;5.70;;;11.50;99.90;;;;;;4970549;28;20425;-63
2023/11/14 07:07:38;;;;;;;38.63;5.65;;;11.50;99.90;;;;;;4982096;28;20462;-62
2023/11/14 07:10:05;;;;;;;36.20;5.47;;;11.60;99.90;;;;;;4984710;28;20101;-62
2023/11/14 07:12:30;;;;;;;33.83;6.35;;;11.50;99.90;;;;;;4988633;28;20085;-63
2023/11/14 07:14:56;;;;;;;37.65;5.68;;;11.50;99.90;;;;;;4988279;28;20034;-61
2023/11/14 07:17:22;;;;;;;39.65;6.50;;;11.50;99.90;;;;;;4977271;28;20073;-63
2023/11/14 07:19:48;;;;;;;31.35;5.72;;;11.50;99.90;;;;;;4989240;28;20081;-62
2023/11/14 07:22:14;;;;;;;36.00;6.15;;;11.50;99.90;;;;;;4988432;28;20034;-61
2023/11/14 07:24:39;;;;;;;33.88;5.43;;;11.50;99.90;;;;;;4988227;28;20038;-61
2023/11/14 07:27:06;;;;;;;34.22;7.03;;;11.50;99.90;;;;;;4986380;28;20494;-63
2023/11/14 07:29:32;;;;;;;31.08;5.65;;;11.50;99.90;;;;;;4988147;28;20038;-63
2023/11/14 07:31:58;;;;;;;31.95;5.78;;;11.50;99.90;;;;;;4989833;28;20045;-62
2023/11/14 07:34:25;;;;;;;33.47;5.55;;;11.50;99.90;;;;;;4988221;28;20820;-63
2023/11/14 07:36:51;;;;;;;31.20;5.53;;;11.50;99.90;;;;;;4970731;28;20398;-62
2023/11/14 07:39:17;;;;;;;40.85;5.53;;;11.60;99.90;;;;;;4957444;28;1063896;-63
2023/11/14 07:41:43;;;;;;;32.78;6.07;;;11.60;99.90;;;;;;4984563;28;20514;-63
2023/11/14 07:44:09;;;;;;;35.80;6.78;;;11.60;99.90;;;;;;4988687;28;20097;-63
2023/11/14 07:46:38;;;;;;;40.45;6.38;;;11.60;99.90;;;;;;4988555;28;20034;-63
2023/11/14 07:49:04;;;;;;;38.95;6.88;;;11.60;99.90;;;;;;4988458;28;20057;-63
2023/11/14 07:51:31;;;;;;;37.55;5.60;;;11.60;99.90;;;;;;4994963;28;20066;-63
2023/11/14 07:53:56;;;;;;;37.55;6.15;;;11.60;99.90;;;;;;4971653;28;20122;-60
2023/11/14 07:56:24;;;;;;;34.85;5.20;;;11.60;99.90;;;;;;4984802;28;20137;-62
2023/11/14 07:58:50;;;;;;;37.20;6.32;;;11.60;99.90;;;;;;4991355;28;20042;-62
2023/11/14 08:01:15;;;;;;;37.88;6.93;;;11.60;99.90;;;;;;4971064;28;20038;-63
2023/11/14 08:03:41;;;;;;;42.28;6.32;;;11.60;99.90;;;;;;4990514;28;20149;-63
2023/11/14 08:06:07;;;;;;;36.88;5.50;;;11.50;99.90;;;;;;4988171;28;20143;-63
2023/11/14 08:08:33;;;;;;;39.67;6.45;;;11.50;99.90;;;;;;4995497;28;20042;-62
2023/11/14 08:11:00;;;;;;;36.50;6.55;;;11.40;99.90;;;;;;4989063;28;20406;-63
2023/11/14 08:13:26;;;;;;;40.92;7.00;;;11.40;99.90;;;;;;4990480;28;20042;-63
2023/11/14 08:15:51;;;;;;;42.90;7.32;;;11.30;99.90;;;;;;4984316;28;20034;-63
2023/11/14 08:18:17;;;;;;;32.53;6.70;;;11.30;99.90;;;;;;4971482;28;20046;-62
2023/11/14 08:20:43;;;;;;;44.00;7.07;;;11.30;99.90;;;;;;4988608;28;20074;-62
2023/11/14 08:23:08;;;;;;;33.97;5.22;;;11.30;99.90;;;;;;4988536;28;20125;-62
2023/11/14 08:25:34;;;;;;;45.45;6.57;;;11.20;99.90;;;;;;4981862;28;20493;-62
2023/11/14 08:28:00;;;;;;;48.60;6.50;;;11.20;99.90;;;;;;4970851;28;20034;-63
2023/11/14 08:30:27;;;;;;;33.60;5.75;;;11.20;99.90;;;;;;4984599;28;20031;-63
2023/11/14 08:32:55;;;;;;;39.88;6.10;;;11.20;99.90;;;;;;4984653;28;20117;-63
2023/11/14 08:35:21;;;;;;;40.78;5.72;;;11.30;99.90;;;;;;4989222;28;20105;-63
2023/11/14 08:37:48;;;;;;;35.13;6.22;;;11.40;99.90;;;;;;4988073;28;20038;-63
2023/11/14 08:40:15;;;;;;;31.23;6.63;;;11.40;99.90;;;;;;4970844;28;20081;-63
2023/11/14 08:42:41;;;;;;;35.55;5.85;;;11.40;99.90;;;;;;4971324;28;20049;-63
2023/11/14 08:45:07;;;;;;;42.58;7.30;;;11.40;99.90;;;;;;4969977;28;20050;-63
2023/11/14 08:47:33;;;;;;;33.58;5.43;;;11.50;99.90;;;;;;4970558;28;20037;-64
2023/11/14 08:49:58;;;;;;;49.63;6.30;;;11.50;99.90;;;;;;4987964;28;20117;-63
2023/11/14 08:52:24;;;;;;;44.97;7.35;;;11.60;99.90;;;;;;4988835;28;20452;-63
2023/11/14 08:54:49;;;;;;;33.00;5.40;;;11.60;99.90;;;;;;4984725;28;20038;-63
2023/11/14 08:57:15;;;;;;;38.95;5.68;;;11.60;99.90;;;;;;4970635;28;20509;-63
2023/11/14 08:59:41;;;;;;;29.25;5.90;;;11.70;99.90;;;;;;4986997;28;20852;-63
2023/11/14 09:02:06;;;;;;;43.08;5.97;;;11.80;99.90;;;;;;4994046;28;20085;-63
2023/11/14 09:04:32;;;;;;;41.33;5.57;;;11.80;99.90;;;;;;4985232;28;20042;-62
2023/11/14 09:06:58;;;;;;;37.17;6.28;;;11.80;99.90;;;;;;4961182;28;20054;-63
2023/11/14 09:09:23;;;;;;;33.78;5.72;;;11.80;99.90;;;;;;4970616;28;20038;-63
2023/11/14 09:11:49;;;;;;;40.33;6.88;;;11.80;99.90;;;;;;4984708;28;20039;-64
2023/11/14 09:14:15;;;;;;;33.28;5.68;;;11.90;99.90;;;;;;4987909;28;20088;-62
2023/11/14 09:16:41;;;;;;;37.22;6.03;;;11.90;99.90;;;;;;4983766;28;20448;-63
2023/11/14 09:19:07;;;;;;;34.72;5.82;;;11.90;99.90;;;;;;4985569;28;20086;-63
2023/11/14 09:21:34;;;;;;;47.22;7.07;;;12.00;99.90;;;;;;4987511;28;20401;-63
2023/11/14 09:24:03;;;;;;;35.97;6.10;;;11.90;99.90;;;;;;4973017;28;20034;-63
2023/11/14 09:26:28;;;;;;;40.25;5.78;;;12.00;99.90;;;;;;4987584;28;20379;-64
2023/11/14 09:28:55;;;;;;;32.80;5.75;;;12.00;99.90;;;;;;4985728;28;20031;-64
2023/11/14 09:31:21;;;;;;;31.45;5.45;;;12.10;99.90;;;;;;4970069;28;20057;-64
2023/11/14 09:33:47;;;;;;;41.65;6.57;;;12.10;99.90;;;;;;4986810;28;20394;-63
2023/11/14 09:36:14;;;;;;;31.27;5.55;;;12.10;99.90;;;;;;4969437;28;20397;-63
2023/11/14 09:38:39;;;;;;;35.22;5.32;;;12.20;99.90;;;;;;4987148;28;20498;-63
2023/11/14 09:41:06;;;;;;;34.03;6.20;;;12.30;99.90;;;;;;4986797;28;20053;-62
2023/11/14 09:43:34;;;;;;;30.52;6.22;;;12.30;99.90;;;;;;4987322;28;20050;-63
2023/11/14 09:45:59;;;;;;;32.92;6.43;;;12.30;99.90;;;;;;4968983;28;20065;-61
2023/11/14 09:48:28;;;;;;;38.65;7.20;;;12.30;99.90;;;;;;4987319;28;20140;-63
2023/11/14 09:50:54;;;;;;;36.97;5.45;;;12.30;99.90;;;;;;4987103;28;20113;-61
2023/11/14 09:53:23;;;;;;;34.78;5.65;;;12.30;99.90;;;;;;4986023;28;20117;-63
2023/11/14 09:55:53;;;;;;;31.67;6.00;;;12.30;99.90;;;;;;4992688;28;20062;-63
2023/11/14 09:58:20;;;;;;;33.22;5.95;;;12.40;99.90;;;;;;4986898;28;20038;-63
2023/11/14 10:00:47;;;;;;;29.40;5.57;;;12.40;99.90;;;;;;4987530;28;20049;-62
2023/11/14 10:03:12;;;;;;;31.58;5.68;;;12.40;99.90;;;;;;4986796;28;20042;-63
2023/11/14 10:05:38;;;;;;;37.63;6.03;;;12.40;99.90;;;;;;4985839;28;20042;-63
2023/11/14 10:08:06;;;;;;;33.92;5.38;;;12.50;99.90;;;;;;4986769;28;20043;-61
2023/11/14 10:10:32;;;;;;;31.33;5.38;;;12.50;99.90;;;;;;4987286;28;20556;-62
2023/11/14 10:12:57;;;;;;;30.02;5.18;;;12.60;99.90;;;;;;4988697;28;20038;-63
2023/11/14 10:15:28;;;;;;;40.30;5.63;;;12.60;99.90;;;;;;4990420;28;20076;-63
2023/11/14 10:17:54;;;;;;;29.58;5.47;;;12.60;99.90;;;;;;4973309;28;20033;-63
2023/11/14 10:20:19;;;;;;;33.42;5.93;;;12.60;99.90;;;;;;4991697;28;20034;-62
2023/11/14 10:23:04;;;;;;;40.50;6.25;;;12.80;99.90;;;;;;4973157;28;20037;-63
2023/11/14 10:25:33;;;;;;;33.85;6.07;;;12.90;99.90;;;;;;4989142;28;20394;-63
2023/11/14 10:28:04;;;;;;;31.58;5.70;;;13.00;99.90;;;;;;4990063;28;20395;-62
2023/11/14 10:30:42;;;;;;;29.92;5.65;;;12.90;99.90;;;;;;4990242;28;20049;-63
2023/11/14 10:33:10;;;;;;;29.35;5.63;;;12.90;99.90;;;;;;4990200;28;20104;-63
2023/11/14 10:35:36;;;;;;;33.05;5.90;;;12.80;99.90;;;;;;4990165;28;20494;-63
2023/11/14 10:38:19;;;;;;;28.63;4.57;;;12.80;99.90;;;;;;4972456;28;20054;-63
2023/11/14 10:40:54;;;;;;;29.48;5.10;;;12.80;99.90;;;;;;4990732;28;20043;-61
2023/11/14 10:43:27;;;;;;;29.33;5.18;;;12.80;99.90;;;;;;4972451;28;20039;-63
2023/11/14 10:45:53;;;;;;;;;;;12.80;99.90;;;;;;4997178;28;20038;-63
2023/11/14 10:48:22;;;;;;;27.85;4.93;;;12.80;99.90;;;;;;4990057;28;19933;-63
2023/11/14 10:50:49;;;;;;;27.65;5.80;;;12.80;99.90;;;;;;4972430;28;20062;-63
2023/11/14 10:53:15;;;;;;;27.92;4.75;;;12.70;99.90;;;;;;4990013;28;20038;-61
2023/11/14 10:55:44;;;;;;;30.13;5.40;;;12.70;99.90;;;;;;4989912;28;20034;-61
2023/11/14 10:58:12;;;;;;;28.00;5.45;;;12.60;99.90;;;;;;4999976;28;20054;-62
2023/11/14 11:00:38;;;;;;;34.60;5.93;;;12.60;99.90;;;;;;4990132;28;20425;-63
2023/11/14 11:03:05;;;;;;;34.20;5.95;;;12.60;99.90;;;;;;4989325;28;20042;-62
2023/11/14 11:05:32;;;;;;;27.65;6.00;;;12.70;99.90;;;;;;4989633;28;20057;-63
2023/11/14 11:07:59;;;;;;;30.60;5.55;;;12.70;99.90;;;;;;4989347;28;20494;-59
2023/11/14 11:10:38;;;;;;;33.17;5.05;;;12.70;99.90;;;;;;4972659;28;20049;-62
2023/11/14 11:13:11;;;;;;;29.60;5.40;;;12.70;99.90;;;;;;4989723;28;20027;-62
2023/11/14 11:15:48;;;;;;;29.63;5.25;;;12.80;99.90;;;;;;4995280;28;20476;-62
2023/11/14 11:18:14;;;;;;;29.70;5.30;;;12.70;99.90;;;;;;4989576;28;20049;-63
2023/11/14 11:20:41;;;;;;;31.35;5.55;;;12.70;99.90;;;;;;4989453;28;20120;-62
2023/11/14 11:23:12;;;;;;;38.33;6.53;;;12.60;99.90;;;;;;4993472;28;20082;-61
2023/11/14 11:25:46;;;;;;;33.45;5.43;;;12.60;99.90;;;;;;4965016;28;20050;-63
2023/11/14 11:28:20;;;;;;;33.97;5.32;;;12.60;99.90;;;;;;4986301;28;20050;-62
2023/11/14 11:31:05;;;;;;;31.58;5.32;;;12.70;99.90;;;;;;4978319;28;20031;-60
2023/11/14 11:33:48;;;;;;;34.50;5.07;;;12.80;99.90;;;;;;4967035;28;20475;-63
2023/11/14 11:36:20;;;;;;;26.58;5.70;;;12.80;99.90;;;;;;4989678;28;20452;-63
2023/11/14 11:38:53;;;;;;;23.83;5.00;;;12.90;99.90;;;;;;4971482;28;20459;-62
2023/11/14 11:41:19;;;;;;;33.67;5.68;;;13.00;99.90;;;;;;4991249;28;20568;-63
2023/11/14 11:43:45;;;;;;;25.35;4.75;;;13.10;99.90;;;;;;4971622;28;20042;-63
2023/11/14 11:46:43;;;;;;;31.60;5.07;;;13.20;99.90;;;;;;4988122;28;20042;-62
2023/11/14 11:49:12;;;;;;;31.67;4.90;;;13.30;99.90;;;;;;4988172;28;20046;-63
2023/11/14 11:51:43;;;;;;;27.75;5.00;;;13.50;99.90;;;;;;4988884;28;20084;-63
2023/11/14 11:54:27;;;;;;;27.13;5.43;;;13.50;99.90;;;;;;4988572;28;20039;-60
2023/11/14 11:57:09;;;;;;;27.48;5.13;;;13.60;99.90;;;;;;4983674;28;20047;-63
2023/11/14 11:59:43;;;;;;;36.38;6.18;;;13.60;99.90;;;;;;4967878;28;20082;-63
2023/11/14 12:02:10;;;;;;;32.67;5.38;;;13.50;99.90;;;;;;4988726;28;20057;-62
2023/11/14 12:04:37;;;;;;;26.80;4.82;;;13.50;99.90;;;;;;4988270;28;20073;-63
2023/11/14 12:07:03;;;;;;;32.28;5.40;;;13.40;99.90;;;;;;4988728;28;20033;-63
2023/11/14 12:09:31;;;;;;;32.75;6.20;;;13.30;99.90;;;;;;4986891;28;20046;-62
2023/11/14 12:11:57;;;;;;;30.05;5.28;;;13.20;99.90;;;;;;4976962;28;20034;-63
2023/11/14 12:14:23;;;;;;;32.05;5.72;;;13.10;99.90;;;;;;4988656;28;20039;-63
2023/11/14 12:16:49;;;;;;;31.38;5.78;;;13.00;99.90;;;;;;4987935;28;20072;-63
2023/11/14 12:19:15;;;;;;;35.38;5.30;;;12.90;99.90;;;;;;4988509;28;20597;-63
2023/11/14 12:21:44;;;;;;;34.30;5.90;;;12.90;99.90;;;;;;4986780;28;20045;-63
2023/11/14 12:24:11;;;;;;;31.58;5.72;;;12.80;99.90;;;;;;4987873;28;20457;-63
2023/11/14 12:26:37;;;;;;;37.03;5.70;;;12.70;99.90;;;;;;4988863;28;20042;-63
2023/11/14 12:29:13;;;;;;;34.95;5.85;;;12.70;99.90;;;;;;4982171;28;20050;-62
2023/11/14 12:31:47;;;;;;;26.10;5.63;;;12.70;99.90;;;;;;4986411;28;20091;-63
2023/11/14 12:34:24;;;;;;;35.17;5.50;;;12.60;99.90;;;;;;4988399;28;20126;-63
2023/11/14 12:36:50;;;;;;;32.33;6.10;;;12.60;99.90;;;;;;4972468;28;20346;-63